sensor_id;sensor_type;location;lat;lon;timestamp;P1;durP1;ratioP1;P2;durP2;ratioP2
51854;SDS011;37895;53.240;6.572;2024-02-26T00:00:10;38.28;;;29.33;;
51854;SDS011;37895;53.240;6.572;2024-02-26T00:02:36;38.35;;;29.90;;
51854;SDS011;37895;53.240;6.572;2024-02-26T00:05:06;46.08;;;32.85;;
51854;SDS011;37895;53.240;6.572;2024-02-26T00:07:33;42.63;;;31.85;;
51854;SDS011;37895;53.240;6.572;2024-02-26T00:09:59;38.22;;;28.48;;
51854;SDS011;37895;53.240;6.572;2024-02-26T00:12:24;43.45;;;31.23;;
51854;SDS011;37895;53.240;6.572;2024-02-26T00:14:50;39.90;;;30.50;;
51854;SDS011;37895;53.240;6.572;2024-02-26T00:17:17;41.35;;;30.63;;
51854;SDS011;37895;53.240;6.572;2024-02-26T00:19:43;35.53;;;28.33;;
51854;SDS011;37895;53.240;6.572;2024-02-26T00:22:08;35.90;;;29.02;;
51854;SDS011;37895;53.240;6.572;2024-02-26T00:24:34;36.58;;;30.23;;
51854;SDS011;37895;53.240;6.572;2024-02-26T00:27:00;33.20;;;28.63;;
51854;SDS011;37895;53.240;6.572;2024-02-26T00:29:25;46.85;;;33.03;;
51854;SDS011;37895;53.240;6.572;2024-02-26T00:31:51;34.55;;;28.15;;
51854;SDS011;37895;53.240;6.572;2024-02-26T00:34:16;35.03;;;28.67;;
51854;SDS011;37895;53.240;6.572;2024-02-26T00:36:42;34.10;;;29.58;;
51854;SDS011;37895;53.240;6.572;2024-02-26T00:39:08;30.95;;;27.30;;
51854;SDS011;37895;53.240;6.572;2024-02-26T00:44:03;36.85;;;29.33;;
51854;SDS011;37895;53.240;6.572;2024-02-26T00:46:28;34.95;;;29.08;;
51854;SDS011;37895;53.240;6.572;2024-02-26T00:48:54;30.95;;;27.42;;
51854;SDS011;37895;53.240;6.572;2024-02-26T00:51:20;32.63;;;28.05;;
51854;SDS011;37895;53.240;6.572;2024-02-26T00:53:45;31.88;;;28.33;;
51854;SDS011;37895;53.240;6.572;2024-02-26T00:56:11;35.65;;;29.52;;
51854;SDS011;37895;53.240;6.572;2024-02-26T00:58:36;31.92;;;26.73;;
51854;SDS011;37895;53.240;6.572;2024-02-26T01:01:02;32.50;;;27.85;;
51854;SDS011;37895;53.240;6.572;2024-02-26T01:03:28;27.60;;;24.55;;
51854;SDS011;37895;53.240;6.572;2024-02-26T01:05:54;29.70;;;26.15;;
51854;SDS011;37895;53.240;6.572;2024-02-26T01:08:19;28.45;;;25.33;;
51854;SDS011;37895;53.240;6.572;2024-02-26T01:10:45;28.92;;;25.15;;
51854;SDS011;37895;53.240;6.572;2024-02-26T01:13:11;24.38;;;21.88;;
51854;SDS011;37895;53.240;6.572;2024-02-26T01:15:36;24.98;;;22.48;;
51854;SDS011;37895;53.240;6.572;2024-02-26T01:18:02;23.10;;;20.63;;
51854;SDS011;37895;53.240;6.572;2024-02-26T01:20:28;24.27;;;21.60;;
51854;SDS011;37895;53.240;6.572;2024-02-26T01:22:53;25.27;;;22.02;;
51854;SDS011;37895;53.240;6.572;2024-02-26T01:25:19;24.85;;;22.25;;
51854;SDS011;37895;53.240;6.572;2024-02-26T01:27:44;24.25;;;21.75;;
51854;SDS011;37895;53.240;6.572;2024-02-26T01:30:10;23.05;;;20.65;;
51854;SDS011;37895;53.240;6.572;2024-02-26T01:32:36;23.92;;;21.48;;
51854;SDS011;37895;53.240;6.572;2024-02-26T01:35:02;22.77;;;20.58;;
51854;SDS011;37895;53.240;6.572;2024-02-26T01:37:36;21.92;;;19.58;;
51854;SDS011;37895;53.240;6.572;2024-02-26T01:40:02;24.52;;;20.63;;
51854;SDS011;37895;53.240;6.572;2024-02-26T01:42:30;24.73;;;22.23;;
51854;SDS011;37895;53.240;6.572;2024-02-26T01:44:57;20.20;;;18.20;;
51854;SDS011;37895;53.240;6.572;2024-02-26T01:47:23;22.77;;;20.45;;
51854;SDS011;37895;53.240;6.572;2024-02-26T01:49:49;19.70;;;17.30;;
51854;SDS011;37895;53.240;6.572;2024-02-26T01:52:15;19.60;;;17.65;;
51854;SDS011;37895;53.240;6.572;2024-02-26T01:54:41;19.25;;;17.15;;
51854;SDS011;37895;53.240;6.572;2024-02-26T01:57:09;17.83;;;16.13;;
51854;SDS011;37895;53.240;6.572;2024-02-26T02:02:02;17.90;;;16.20;;
51854;SDS011;37895;53.240;6.572;2024-02-26T02:04:30;17.30;;;15.70;;
51854;SDS011;37895;53.240;6.572;2024-02-26T02:06:56;17.23;;;15.63;;
51854;SDS011;37895;53.240;6.572;2024-02-26T02:09:25;16.23;;;14.75;;
51854;SDS011;37895;53.240;6.572;2024-02-26T02:14:16;19.17;;;17.38;;
51854;SDS011;37895;53.240;6.572;2024-02-26T02:16:42;19.15;;;17.35;;
51854;SDS011;37895;53.240;6.572;2024-02-26T02:19:08;20.20;;;17.58;;
51854;SDS011;37895;53.240;6.572;2024-02-26T02:21:33;19.15;;;17.15;;
51854;SDS011;37895;53.240;6.572;2024-02-26T02:23:59;19.80;;;16.17;;
51854;SDS011;37895;53.240;6.572;2024-02-26T02:26:24;18.30;;;16.38;;
51854;SDS011;37895;53.240;6.572;2024-02-26T02:28:50;18.75;;;16.65;;
51854;SDS011;37895;53.240;6.572;2024-02-26T02:31:16;20.17;;;18.02;;
51854;SDS011;37895;53.240;6.572;2024-02-26T02:33:42;18.73;;;16.92;;
51854;SDS011;37895;53.240;6.572;2024-02-26T02:36:08;18.67;;;16.33;;
51854;SDS011;37895;53.240;6.572;2024-02-26T02:38:38;16.90;;;15.27;;
51854;SDS011;37895;53.240;6.572;2024-02-26T02:41:13;17.45;;;15.57;;
51854;SDS011;37895;53.240;6.572;2024-02-26T02:43:38;17.08;;;15.35;;
51854;SDS011;37895;53.240;6.572;2024-02-26T02:46:04;18.30;;;16.40;;
51854;SDS011;37895;53.240;6.572;2024-02-26T02:48:29;17.33;;;15.20;;
51854;SDS011;37895;53.240;6.572;2024-02-26T02:50:55;14.80;;;13.30;;
51854;SDS011;37895;53.240;6.572;2024-02-26T02:53:21;16.50;;;14.65;;
51854;SDS011;37895;53.240;6.572;2024-02-26T02:55:46;15.85;;;14.25;;
51854;SDS011;37895;53.240;6.572;2024-02-26T02:58:12;17.23;;;14.98;;
51854;SDS011;37895;53.240;6.572;2024-02-26T03:00:38;15.75;;;14.15;;
51854;SDS011;37895;53.240;6.572;2024-02-26T03:03:03;14.60;;;13.25;;
51854;SDS011;37895;53.240;6.572;2024-02-26T03:05:29;15.02;;;13.65;;
51854;SDS011;37895;53.240;6.572;2024-02-26T03:07:55;14.93;;;13.43;;
51854;SDS011;37895;53.240;6.572;2024-02-26T03:10:20;16.23;;;14.35;;
51854;SDS011;37895;53.240;6.572;2024-02-26T03:12:46;15.45;;;13.85;;
51854;SDS011;37895;53.240;6.572;2024-02-26T03:15:11;15.13;;;13.63;;
51854;SDS011;37895;53.240;6.572;2024-02-26T03:17:37;15.85;;;14.15;;
51854;SDS011;37895;53.240;6.572;2024-02-26T03:20:03;14.43;;;13.02;;
51854;SDS011;37895;53.240;6.572;2024-02-26T03:22:30;14.20;;;12.68;;
51854;SDS011;37895;53.240;6.572;2024-02-26T03:24:56;14.70;;;13.32;;
51854;SDS011;37895;53.240;6.572;2024-02-26T03:27:22;13.55;;;12.23;;
51854;SDS011;37895;53.240;6.572;2024-02-26T03:29:48;13.02;;;11.82;;
51854;SDS011;37895;53.240;6.572;2024-02-26T03:32:14;14.90;;;13.18;;
51854;SDS011;37895;53.240;6.572;2024-02-26T03:34:39;14.23;;;12.80;;
51854;SDS011;37895;53.240;6.572;2024-02-26T03:37:05;14.68;;;12.70;;
51854;SDS011;37895;53.240;6.572;2024-02-26T03:39:32;13.43;;;12.10;;
51854;SDS011;37895;53.240;6.572;2024-02-26T03:41:58;13.35;;;12.05;;
51854;SDS011;37895;53.240;6.572;2024-02-26T03:44:23;13.77;;;12.38;;
51854;SDS011;37895;53.240;6.572;2024-02-26T03:49:15;15.50;;;11.45;;
51854;SDS011;37895;53.240;6.572;2024-02-26T03:51:41;13.40;;;12.10;;
51854;SDS011;37895;53.240;6.572;2024-02-26T03:54:07;12.88;;;11.57;;
51854;SDS011;37895;53.240;6.572;2024-02-26T03:56:32;13.50;;;12.18;;
51854;SDS011;37895;53.240;6.572;2024-02-26T03:58:58;12.77;;;11.30;;
51854;SDS011;37895;53.240;6.572;2024-02-26T04:01:26;13.90;;;12.43;;
51854;SDS011;37895;53.240;6.572;2024-02-26T04:03:52;12.93;;;11.63;;
51854;SDS011;37895;53.240;6.572;2024-02-26T04:06:18;13.82;;;12.23;;
51854;SDS011;37895;53.240;6.572;2024-02-26T04:08:46;13.23;;;10.98;;
51854;SDS011;37895;53.240;6.572;2024-02-26T04:11:11;11.82;;;10.63;;
51854;SDS011;37895;53.240;6.572;2024-02-26T04:13:37;12.75;;;11.45;;
51854;SDS011;37895;53.240;6.572;2024-02-26T04:16:06;14.70;;;11.63;;
51854;SDS011;37895;53.240;6.572;2024-02-26T04:18:32;14.32;;;11.75;;
51854;SDS011;37895;53.240;6.572;2024-02-26T04:23:23;13.93;;;12.43;;
51854;SDS011;37895;53.240;6.572;2024-02-26T04:28:15;14.98;;;11.45;;
51854;SDS011;37895;53.240;6.572;2024-02-26T04:30:41;11.18;;;10.00;;
51854;SDS011;37895;53.240;6.572;2024-02-26T04:33:06;13.20;;;10.73;;
51854;SDS011;37895;53.240;6.572;2024-02-26T04:35:32;10.80;;;9.82;;
51854;SDS011;37895;53.240;6.572;2024-02-26T04:38:00;12.52;;;10.15;;
51854;SDS011;37895;53.240;6.572;2024-02-26T04:40:25;10.38;;;9.15;;
51854;SDS011;37895;53.240;6.572;2024-02-26T04:42:51;10.48;;;9.38;;
51854;SDS011;37895;53.240;6.572;2024-02-26T04:45:17;10.02;;;8.95;;
51854;SDS011;37895;53.240;6.572;2024-02-26T04:47:42;12.02;;;9.60;;
51854;SDS011;37895;53.240;6.572;2024-02-26T04:50:08;9.88;;;8.98;;
51854;SDS011;37895;53.240;6.572;2024-02-26T04:52:34;11.40;;;8.88;;
51854;SDS011;37895;53.240;6.572;2024-02-26T04:54:59;10.52;;;9.50;;
51854;SDS011;37895;53.240;6.572;2024-02-26T04:57:25;9.07;;;8.27;;
51854;SDS011;37895;53.240;6.572;2024-02-26T04:59:51;10.00;;;9.00;;
51854;SDS011;37895;53.240;6.572;2024-02-26T05:02:17;8.90;;;8.20;;
51854;SDS011;37895;53.240;6.572;2024-02-26T05:04:42;8.95;;;8.05;;
51854;SDS011;37895;53.240;6.572;2024-02-26T05:07:08;10.95;;;8.65;;
51854;SDS011;37895;53.240;6.572;2024-02-26T05:09:34;10.35;;;8.95;;
51854;SDS011;37895;53.240;6.572;2024-02-26T05:12:00;9.35;;;8.38;;
51854;SDS011;37895;53.240;6.572;2024-02-26T05:14:26;10.98;;;9.13;;
51854;SDS011;37895;53.240;6.572;2024-02-26T05:16:51;9.27;;;8.38;;
51854;SDS011;37895;53.240;6.572;2024-02-26T05:19:17;8.98;;;8.10;;
51854;SDS011;37895;53.240;6.572;2024-02-26T05:21:42;9.82;;;8.57;;
51854;SDS011;37895;53.240;6.572;2024-02-26T05:24:09;9.63;;;8.80;;
51854;SDS011;37895;53.240;6.572;2024-02-26T05:26:35;8.70;;;7.80;;
51854;SDS011;37895;53.240;6.572;2024-02-26T05:29:00;8.77;;;7.97;;
51854;SDS011;37895;53.240;6.572;2024-02-26T05:31:26;9.13;;;8.20;;
51854;SDS011;37895;53.240;6.572;2024-02-26T05:33:53;9.20;;;7.82;;
51854;SDS011;37895;53.240;6.572;2024-02-26T05:36:19;8.70;;;7.10;;
51854;SDS011;37895;53.240;6.572;2024-02-26T05:38:47;8.48;;;7.65;;
51854;SDS011;37895;53.240;6.572;2024-02-26T05:41:14;8.45;;;7.65;;
51854;SDS011;37895;53.240;6.572;2024-02-26T05:43:40;8.75;;;8.05;;
51854;SDS011;37895;53.240;6.572;2024-02-26T05:46:06;8.30;;;7.43;;
51854;SDS011;37895;53.240;6.572;2024-02-26T05:48:31;8.45;;;7.57;;
51854;SDS011;37895;53.240;6.572;2024-02-26T05:50:57;8.10;;;7.35;;
51854;SDS011;37895;53.240;6.572;2024-02-26T05:53:23;7.95;;;7.15;;
51854;SDS011;37895;53.240;6.572;2024-02-26T05:55:48;8.40;;;7.60;;
51854;SDS011;37895;53.240;6.572;2024-02-26T05:58:14;7.15;;;6.55;;
51854;SDS011;37895;53.240;6.572;2024-02-26T06:00:40;7.50;;;6.90;;
51854;SDS011;37895;53.240;6.572;2024-02-26T06:03:05;7.30;;;6.70;;
51854;SDS011;37895;53.240;6.572;2024-02-26T06:05:31;7.32;;;6.60;;
51854;SDS011;37895;53.240;6.572;2024-02-26T06:07:57;8.55;;;6.60;;
51854;SDS011;37895;53.240;6.572;2024-02-26T06:10:22;7.57;;;6.97;;
51854;SDS011;37895;53.240;6.572;2024-02-26T06:12:48;7.43;;;6.68;;
51854;SDS011;37895;53.240;6.572;2024-02-26T06:15:13;7.30;;;6.70;;
51854;SDS011;37895;53.240;6.572;2024-02-26T06:17:39;7.50;;;6.90;;
51854;SDS011;37895;53.240;6.572;2024-02-26T06:20:05;7.15;;;6.55;;
51854;SDS011;37895;53.240;6.572;2024-02-26T06:22:31;7.75;;;7.05;;
51854;SDS011;37895;53.240;6.572;2024-02-26T06:24:57;7.22;;;6.63;;
51854;SDS011;37895;53.240;6.572;2024-02-26T06:27:23;7.43;;;6.65;;
51854;SDS011;37895;53.240;6.572;2024-02-26T06:29:49;7.28;;;6.57;;
51854;SDS011;37895;53.240;6.572;2024-02-26T06:32:14;7.25;;;6.57;;
51854;SDS011;37895;53.240;6.572;2024-02-26T06:34:40;7.93;;;7.22;;
51854;SDS011;37895;53.240;6.572;2024-02-26T06:37:07;8.13;;;7.53;;
51854;SDS011;37895;53.240;6.572;2024-02-26T06:39:33;7.43;;;6.72;;
51854;SDS011;37895;53.240;6.572;2024-02-26T06:41:59;7.50;;;6.80;;
51854;SDS011;37895;53.240;6.572;2024-02-26T06:44:27;7.85;;;7.07;;
51854;SDS011;37895;53.240;6.572;2024-02-26T06:46:59;7.80;;;7.05;;
51854;SDS011;37895;53.240;6.572;2024-02-26T06:49:25;7.60;;;6.90;;
51854;SDS011;37895;53.240;6.572;2024-02-26T06:54:17;7.35;;;6.60;;
51854;SDS011;37895;53.240;6.572;2024-02-26T06:56:42;9.02;;;6.50;;
51854;SDS011;37895;53.240;6.572;2024-02-26T06:59:08;8.48;;;6.47;;
51854;SDS011;37895;53.240;6.572;2024-02-26T07:01:34;7.32;;;6.65;;
51854;SDS011;37895;53.240;6.572;2024-02-26T07:03:59;9.15;;;6.85;;
51854;SDS011;37895;53.240;6.572;2024-02-26T07:06:25;7.57;;;6.78;;
51854;SDS011;37895;53.240;6.572;2024-02-26T07:08:54;7.45;;;6.65;;
51854;SDS011;37895;53.240;6.572;2024-02-26T07:11:20;7.78;;;6.97;;
51854;SDS011;37895;53.240;6.572;2024-02-26T07:13:46;6.75;;;6.15;;
51854;SDS011;37895;53.240;6.572;2024-02-26T07:16:12;7.07;;;6.00;;
51854;SDS011;37895;53.240;6.572;2024-02-26T07:18:38;7.55;;;6.75;;
51854;SDS011;37895;53.240;6.572;2024-02-26T07:21:04;7.65;;;6.82;;
51854;SDS011;37895;53.240;6.572;2024-02-26T07:23:31;8.35;;;6.18;;
51854;SDS011;37895;53.240;6.572;2024-02-26T07:28:22;8.30;;;6.63;;
51854;SDS011;37895;53.240;6.572;2024-02-26T07:33:14;6.68;;;6.05;;
51854;SDS011;37895;53.240;6.572;2024-02-26T07:35:39;7.78;;;6.57;;
51854;SDS011;37895;53.240;6.572;2024-02-26T07:38:05;6.82;;;6.15;;
51854;SDS011;37895;53.240;6.572;2024-02-26T07:40:31;7.47;;;6.85;;
51854;SDS011;37895;53.240;6.572;2024-02-26T07:42:56;6.57;;;5.88;;
51854;SDS011;37895;53.240;6.572;2024-02-26T07:45:22;6.80;;;6.20;;
51854;SDS011;37895;53.240;6.572;2024-02-26T07:47:48;5.85;;;5.25;;
51854;SDS011;37895;53.240;6.572;2024-02-26T07:50:14;6.03;;;5.43;;
51854;SDS011;37895;53.240;6.572;2024-02-26T07:52:39;6.85;;;5.40;;
51854;SDS011;37895;53.240;6.572;2024-02-26T07:55:05;5.82;;;5.22;;
51854;SDS011;37895;53.240;6.572;2024-02-26T07:57:34;5.22;;;4.78;;
51854;SDS011;37895;53.240;6.572;2024-02-26T08:00:00;11.45;;;6.22;;
51854;SDS011;37895;53.240;6.572;2024-02-26T08:02:32;6.75;;;4.88;;
51854;SDS011;37895;53.240;6.572;2024-02-26T08:04:59;6.00;;;5.50;;
51854;SDS011;37895;53.240;6.572;2024-02-26T08:07:24;6.00;;;5.32;;
51854;SDS011;37895;53.240;6.572;2024-02-26T08:09:50;5.53;;;5.03;;
51854;SDS011;37895;53.240;6.572;2024-02-26T08:12:16;6.43;;;5.82;;
51854;SDS011;37895;53.240;6.572;2024-02-26T08:14:41;5.88;;;5.35;;
51854;SDS011;37895;53.240;6.572;2024-02-26T08:17:08;5.47;;;5.07;;
51854;SDS011;37895;53.240;6.572;2024-02-26T08:19:34;5.50;;;5.05;;
51854;SDS011;37895;53.240;6.572;2024-02-26T08:22:00;5.30;;;4.80;;
51854;SDS011;37895;53.240;6.572;2024-02-26T08:24:26;5.25;;;4.78;;
51854;SDS011;37895;53.240;6.572;2024-02-26T08:29:18;6.65;;;4.40;;
51854;SDS011;37895;53.240;6.572;2024-02-26T08:31:44;4.78;;;4.30;;
51854;SDS011;37895;53.240;6.572;2024-02-26T08:34:09;4.53;;;4.15;;
51854;SDS011;37895;53.240;6.572;2024-02-26T08:36:35;4.15;;;3.75;;
51854;SDS011;37895;53.240;6.572;2024-02-26T08:39:01;5.50;;;4.18;;
51854;SDS011;37895;53.240;6.572;2024-02-26T08:41:27;4.63;;;4.22;;
51854;SDS011;37895;53.240;6.572;2024-02-26T08:43:53;4.82;;;4.40;;
51854;SDS011;37895;53.240;6.572;2024-02-26T08:46:19;4.40;;;4.00;;
51854;SDS011;37895;53.240;6.572;2024-02-26T08:48:45;4.70;;;4.30;;
51854;SDS011;37895;53.240;6.572;2024-02-26T08:51:11;5.95;;;4.47;;
51854;SDS011;37895;53.240;6.572;2024-02-26T08:53:36;5.18;;;4.70;;
51854;SDS011;37895;53.240;6.572;2024-02-26T08:56:02;4.88;;;4.32;;
51854;SDS011;37895;53.240;6.572;2024-02-26T08:58:28;4.88;;;4.47;;
51854;SDS011;37895;53.240;6.572;2024-02-26T09:00:54;7.45;;;4.60;;
51854;SDS011;37895;53.240;6.572;2024-02-26T09:05:46;6.80;;;4.65;;
51854;SDS011;37895;53.240;6.572;2024-02-26T09:08:11;5.95;;;4.40;;
51854;SDS011;37895;53.240;6.572;2024-02-26T09:10:38;5.05;;;4.00;;
51854;SDS011;37895;53.240;6.572;2024-02-26T09:13:04;8.70;;;4.32;;
51854;SDS011;37895;53.240;6.572;2024-02-26T09:15:30;6.10;;;4.80;;
51854;SDS011;37895;53.240;6.572;2024-02-26T09:17:55;4.97;;;4.57;;
51854;SDS011;37895;53.240;6.572;2024-02-26T09:20:21;6.32;;;4.95;;
51854;SDS011;37895;53.240;6.572;2024-02-26T09:22:48;5.18;;;4.75;;
51854;SDS011;37895;53.240;6.572;2024-02-26T09:25:14;5.18;;;4.72;;
51854;SDS011;37895;53.240;6.572;2024-02-26T09:30:07;5.55;;;5.00;;
51854;SDS011;37895;53.240;6.572;2024-02-26T09:32:33;5.82;;;5.28;;
51854;SDS011;37895;53.240;6.572;2024-02-26T09:34:59;6.15;;;5.55;;
51854;SDS011;37895;53.240;6.572;2024-02-26T09:37:24;5.93;;;5.35;;
51854;SDS011;37895;53.240;6.572;2024-02-26T09:39:50;6.60;;;5.55;;
51854;SDS011;37895;53.240;6.572;2024-02-26T09:42:16;6.35;;;5.68;;
51854;SDS011;37895;53.240;6.572;2024-02-26T09:44:43;7.00;;;5.88;;
51854;SDS011;37895;53.240;6.572;2024-02-26T09:47:10;6.53;;;5.90;;
51854;SDS011;37895;53.240;6.572;2024-02-26T09:49:40;6.32;;;5.75;;
51854;SDS011;37895;53.240;6.572;2024-02-26T09:52:07;5.43;;;4.93;;
51854;SDS011;37895;53.240;6.572;2024-02-26T09:54:34;7.18;;;5.55;;
51854;SDS011;37895;53.240;6.572;2024-02-26T09:57:00;6.63;;;4.75;;
51854;SDS011;37895;53.240;6.572;2024-02-26T09:59:29;5.88;;;4.53;;
51854;SDS011;37895;53.240;6.572;2024-02-26T10:01:59;5.63;;;4.60;;
51854;SDS011;37895;53.240;6.572;2024-02-26T10:04:26;5.40;;;4.43;;
51854;SDS011;37895;53.240;6.572;2024-02-26T10:06:52;4.97;;;4.40;;
51854;SDS011;37895;53.240;6.572;2024-02-26T10:09:19;4.82;;;4.30;;
51854;SDS011;37895;53.240;6.572;2024-02-26T10:11:45;5.18;;;4.30;;
51854;SDS011;37895;53.240;6.572;2024-02-26T10:14:14;4.45;;;4.05;;
51854;SDS011;37895;53.240;6.572;2024-02-26T10:16:40;4.15;;;3.75;;
51854;SDS011;37895;53.240;6.572;2024-02-26T10:19:07;4.55;;;3.97;;
51854;SDS011;37895;53.240;6.572;2024-02-26T10:21:34;4.70;;;4.13;;
51854;SDS011;37895;53.240;6.572;2024-02-26T10:23:59;4.30;;;3.90;;
51854;SDS011;37895;53.240;6.572;2024-02-26T10:26:25;3.90;;;3.50;;
51854;SDS011;37895;53.240;6.572;2024-02-26T10:28:50;3.90;;;3.50;;
51854;SDS011;37895;53.240;6.572;2024-02-26T10:31:17;4.55;;;3.60;;
51854;SDS011;37895;53.240;6.572;2024-02-26T10:33:43;3.53;;;3.22;;
51854;SDS011;37895;53.240;6.572;2024-02-26T10:36:09;3.90;;;3.60;;
51854;SDS011;37895;53.240;6.572;2024-02-26T10:38:36;3.78;;;3.47;;
51854;SDS011;37895;53.240;6.572;2024-02-26T10:41:12;4.78;;;3.70;;
51854;SDS011;37895;53.240;6.572;2024-02-26T10:43:40;3.88;;;3.47;;
51854;SDS011;37895;53.240;6.572;2024-02-26T10:46:08;4.20;;;3.80;;
51854;SDS011;37895;53.240;6.572;2024-02-26T10:51:00;4.70;;;4.22;;
51854;SDS011;37895;53.240;6.572;2024-02-26T10:53:28;4.20;;;3.80;;
51854;SDS011;37895;53.240;6.572;2024-02-26T10:55:57;3.75;;;3.35;;
51854;SDS011;37895;53.240;6.572;2024-02-26T10:58:26;4.55;;;3.60;;
51854;SDS011;37895;53.240;6.572;2024-02-26T11:00:53;6.45;;;3.95;;
51854;SDS011;37895;53.240;6.572;2024-02-26T11:03:22;4.30;;;3.90;;
51854;SDS011;37895;53.240;6.572;2024-02-26T11:05:49;5.88;;;3.88;;
51854;SDS011;37895;53.240;6.572;2024-02-26T11:08:15;5.72;;;4.10;;
51854;SDS011;37895;53.240;6.572;2024-02-26T11:10:47;5.60;;;4.32;;
51854;SDS011;37895;53.240;6.572;2024-02-26T11:13:14;5.43;;;4.47;;
51854;SDS011;37895;53.240;6.572;2024-02-26T11:15:42;4.80;;;4.40;;
51854;SDS011;37895;53.240;6.572;2024-02-26T11:18:08;5.25;;;4.40;;
51854;SDS011;37895;53.240;6.572;2024-02-26T11:20:34;6.80;;;4.50;;
51854;SDS011;37895;53.240;6.572;2024-02-26T11:23:04;5.63;;;4.95;;
51854;SDS011;37895;53.240;6.572;2024-02-26T11:25:30;6.50;;;5.38;;
51854;SDS011;37895;53.240;6.572;2024-02-26T11:27:56;6.70;;;5.53;;
51854;SDS011;37895;53.240;6.572;2024-02-26T11:30:26;6.38;;;5.68;;
51854;SDS011;37895;53.240;6.572;2024-02-26T11:32:57;5.40;;;5.00;;
51854;SDS011;37895;53.240;6.572;2024-02-26T11:35:23;6.60;;;5.97;;
51854;SDS011;37895;53.240;6.572;2024-02-26T11:37:55;6.30;;;5.70;;
51854;SDS011;37895;53.240;6.572;2024-02-26T11:40:25;7.18;;;6.40;;
51854;SDS011;37895;53.240;6.572;2024-02-26T11:42:51;7.20;;;6.25;;
51854;SDS011;37895;53.240;6.572;2024-02-26T11:48:14;7.20;;;6.32;;
51854;SDS011;37895;53.240;6.572;2024-02-26T11:50:43;6.75;;;6.18;;
51854;SDS011;37895;53.240;6.572;2024-02-26T11:53:23;6.95;;;6.28;;
51854;SDS011;37895;53.240;6.572;2024-02-26T11:58:42;7.47;;;6.60;;
51854;SDS011;37895;53.240;6.572;2024-02-26T12:06:58;9.88;;;7.38;;
51854;SDS011;37895;53.240;6.572;2024-02-26T12:12:02;8.48;;;7.60;;
51854;SDS011;37895;53.240;6.572;2024-02-26T12:14:28;8.00;;;7.20;;
51854;SDS011;37895;53.240;6.572;2024-02-26T12:16:55;8.43;;;7.38;;
51854;SDS011;37895;53.240;6.572;2024-02-26T12:19:21;7.97;;;7.22;;
51854;SDS011;37895;53.240;6.572;2024-02-26T12:21:50;10.23;;;8.20;;
51854;SDS011;37895;53.240;6.572;2024-02-26T12:24:17;8.93;;;8.13;;
51854;SDS011;37895;53.240;6.572;2024-02-26T12:26:44;10.30;;;8.07;;
51854;SDS011;37895;53.240;6.572;2024-02-26T12:29:10;9.63;;;8.63;;
51854;SDS011;37895;53.240;6.572;2024-02-26T12:31:36;9.82;;;8.15;;
51854;SDS011;37895;53.240;6.572;2024-02-26T12:34:02;9.25;;;8.43;;
51854;SDS011;37895;53.240;6.572;2024-02-26T12:36:29;8.35;;;7.55;;
51854;SDS011;37895;53.240;6.572;2024-02-26T12:38:55;9.18;;;8.27;;
51854;SDS011;37895;53.240;6.572;2024-02-26T12:41:21;9.43;;;8.07;;
51854;SDS011;37895;53.240;6.572;2024-02-26T12:43:47;9.73;;;8.30;;
51854;SDS011;37895;53.240;6.572;2024-02-26T12:46:13;10.95;;;9.88;;
51854;SDS011;37895;53.240;6.572;2024-02-26T12:48:42;10.07;;;9.18;;
51854;SDS011;37895;53.240;6.572;2024-02-26T12:51:09;9.82;;;8.82;;
51854;SDS011;37895;53.240;6.572;2024-02-26T12:53:37;9.70;;;8.75;;
51854;SDS011;37895;53.240;6.572;2024-02-26T12:56:05;10.68;;;9.15;;
51854;SDS011;37895;53.240;6.572;2024-02-26T12:58:32;11.30;;;10.02;;
51854;SDS011;37895;53.240;6.572;2024-02-26T13:00:59;10.63;;;9.38;;
51854;SDS011;37895;53.240;6.572;2024-02-26T13:03:25;11.68;;;9.90;;
51854;SDS011;37895;53.240;6.572;2024-02-26T13:05:52;11.48;;;9.80;;
51854;SDS011;37895;53.240;6.572;2024-02-26T13:08:21;12.57;;;10.00;;
51854;SDS011;37895;53.240;6.572;2024-02-26T13:10:47;12.25;;;9.73;;
51854;SDS011;37895;53.240;6.572;2024-02-26T13:13:15;10.70;;;9.23;;
51854;SDS011;37895;53.240;6.572;2024-02-26T13:15:42;10.25;;;9.18;;
51854;SDS011;37895;53.240;6.572;2024-02-26T13:18:14;11.00;;;9.15;;
51854;SDS011;37895;53.240;6.572;2024-02-26T13:20:40;10.70;;;9.60;;
51854;SDS011;37895;53.240;6.572;2024-02-26T13:23:06;11.02;;;9.20;;
51854;SDS011;37895;53.240;6.572;2024-02-26T13:25:35;10.60;;;9.50;;
51854;SDS011;37895;53.240;6.572;2024-02-26T13:28:19;11.10;;;10.00;;
51854;SDS011;37895;53.240;6.572;2024-02-26T13:30:54;12.35;;;11.05;;
51854;SDS011;37895;53.240;6.572;2024-02-26T13:33:25;10.00;;;9.00;;
51854;SDS011;37895;53.240;6.572;2024-02-26T13:35:52;10.88;;;9.77;;
51854;SDS011;37895;53.240;6.572;2024-02-26T13:38:19;10.30;;;9.40;;
51854;SDS011;37895;53.240;6.572;2024-02-26T13:40:45;9.77;;;8.88;;
51854;SDS011;37895;53.240;6.572;2024-02-26T13:43:11;11.00;;;8.93;;
51854;SDS011;37895;53.240;6.572;2024-02-26T13:45:37;10.52;;;9.40;;
51854;SDS011;37895;53.240;6.572;2024-02-26T13:48:13;10.52;;;9.52;;
51854;SDS011;37895;53.240;6.572;2024-02-26T13:50:39;10.65;;;9.55;;
51854;SDS011;37895;53.240;6.572;2024-02-26T13:53:08;11.45;;;9.90;;
51854;SDS011;37895;53.240;6.572;2024-02-26T13:55:33;11.75;;;10.20;;
51854;SDS011;37895;53.240;6.572;2024-02-26T13:57:59;10.52;;;9.55;;
51854;SDS011;37895;53.240;6.572;2024-02-26T14:00:31;10.57;;;9.57;;
51854;SDS011;37895;53.240;6.572;2024-02-26T14:02:59;14.77;;;11.18;;
51854;SDS011;37895;53.240;6.572;2024-02-26T14:05:25;12.65;;;11.10;;
51854;SDS011;37895;53.240;6.572;2024-02-26T14:07:51;12.80;;;11.55;;
51854;SDS011;37895;53.240;6.572;2024-02-26T14:10:17;11.70;;;10.50;;
51854;SDS011;37895;53.240;6.572;2024-02-26T14:12:43;12.35;;;10.63;;
51854;SDS011;37895;53.240;6.572;2024-02-26T14:15:09;12.88;;;11.40;;
51854;SDS011;37895;53.240;6.572;2024-02-26T14:17:35;13.50;;;11.45;;
51854;SDS011;37895;53.240;6.572;2024-02-26T14:20:02;12.73;;;10.63;;
51854;SDS011;37895;53.240;6.572;2024-02-26T14:24:55;12.10;;;10.83;;
51854;SDS011;37895;53.240;6.572;2024-02-26T14:29:47;11.55;;;10.35;;
51854;SDS011;37895;53.240;6.572;2024-02-26T14:32:14;11.68;;;10.48;;
51854;SDS011;37895;53.240;6.572;2024-02-26T14:34:40;10.65;;;9.52;;
51854;SDS011;37895;53.240;6.572;2024-02-26T14:37:05;10.40;;;9.40;;
51854;SDS011;37895;53.240;6.572;2024-02-26T14:39:31;10.38;;;9.38;;
51854;SDS011;37895;53.240;6.572;2024-02-26T14:41:58;12.40;;;9.77;;
51854;SDS011;37895;53.240;6.572;2024-02-26T14:46:50;8.68;;;7.78;;
51854;SDS011;37895;53.240;6.572;2024-02-26T14:49:16;9.13;;;8.27;;
51854;SDS011;37895;53.240;6.572;2024-02-26T14:54:09;13.10;;;9.02;;
51854;SDS011;37895;53.240;6.572;2024-02-26T14:56:38;9.63;;;8.73;;
51854;SDS011;37895;53.240;6.572;2024-02-26T14:59:04;9.30;;;8.40;;
51854;SDS011;37895;53.240;6.572;2024-02-26T15:01:29;10.95;;;9.65;;
51854;SDS011;37895;53.240;6.572;2024-02-26T15:03:55;10.88;;;9.70;;
51854;SDS011;37895;53.240;6.572;2024-02-26T15:06:22;12.75;;;9.48;;
51854;SDS011;37895;53.240;6.572;2024-02-26T15:08:48;11.55;;;9.45;;
51854;SDS011;37895;53.240;6.572;2024-02-26T15:11:14;10.10;;;9.20;;
51854;SDS011;37895;53.240;6.572;2024-02-26T15:16:05;10.52;;;9.10;;
51854;SDS011;37895;53.240;6.572;2024-02-26T15:18:31;11.63;;;9.60;;
51854;SDS011;37895;53.240;6.572;2024-02-26T15:20:57;10.00;;;9.02;;
51854;SDS011;37895;53.240;6.572;2024-02-26T15:23:23;11.23;;;9.50;;
51854;SDS011;37895;53.240;6.572;2024-02-26T15:25:49;10.88;;;9.77;;
51854;SDS011;37895;53.240;6.572;2024-02-26T15:28:14;10.75;;;9.65;;